Time;durP1;ratioP1;P1;durP2;ratioP2;P2;SDS_P1;SDS_P2;PMS_P1;PMS_P2;Temp;Humidity;BMP_temperature;BMP_pressure;BME280_temperature;BME280_humidity;BME280_pressure;Samples;Min_cycle;Max_cycle;Signal;HPM_P1;HPM_P2
2023/06/12 00:01:06;;;;;;;8.48;7.65;;;;;;;-141.84;54.38;21169.66;4974982;28;20295;-57
2023/06/12 00:03:37;;;;;;;8.90;8.10;;;;;;;-141.84;54.31;21124.94;4973227;28;20212;-57
2023/06/12 00:06:06;;;;;;;8.05;7.35;;;;;;;-141.84;54.76;21098.50;4966529;28;20251;-56
2023/06/12 00:08:34;;;;;;;8.27;7.57;;;;;;;-141.84;54.81;21072.06;4967582;28;20197;-58
2023/06/12 00:11:07;;;;;;;8.32;7.53;;;;;;;-141.84;54.08;21114.75;4974579;28;20199;-57
2023/06/12 00:13:36;;;;;;;9.68;8.07;;;;;;;-141.84;54.67;21043.59;4974406;28;20192;-57
2023/06/12 00:16:05;;;;;;;8.65;7.85;;;;;;;-141.84;54.75;21051.75;4974001;28;20276;-57
2023/06/12 00:18:33;;;;;;;8.10;7.40;;;;;;;-141.84;54.33;21100.53;4974151;28;20266;-57
2023/06/12 00:21:03;;;;;;;8.02;7.32;;;;;;;-141.84;54.21;21104.59;4980638;28;20195;-57
2023/06/12 00:23:31;;;;;;;8.38;7.57;;;;;;;-141.84;53.91;21104.59;4993369;28;20863;-57
2023/06/12 00:26:00;;;;;;;9.48;8.48;;;;;;;-141.84;54.10;21086.31;4993619;28;20239;-57
2023/06/12 00:28:28;;;;;;;8.75;7.88;;;;;;;-141.84;54.46;21086.31;4993839;28;20218;-56
2023/06/12 00:30:57;;;;;;;8.75;7.95;;;;;;;-141.84;54.30;21057.84;4992825;28;20227;-59
2023/06/12 00:33:26;;;;;;;8.48;7.68;;;;;;;-141.84;54.19;21082.25;4993158;28;20214;-55
2023/06/12 00:35:54;;;;;;;8.77;7.65;;;;;;;-141.84;54.66;21084.28;4993333;28;20774;-57
2023/06/12 00:38:24;;;;;;;8.70;7.93;;;;;;;-141.84;54.88;21057.84;4985447;28;20299;-57
2023/06/12 00:40:53;;;;;;;8.05;7.35;;;;;;;-141.84;54.71;21061.91;4974204;28;20235;-58
2023/06/12 00:43:21;;;;;;;7.57;6.90;;;;;;;-141.84;54.53;21037.50;4973891;28;20260;-58
2023/06/12 00:45:50;;;;;;;8.27;7.45;;;;;;;-141.84;54.67;21031.41;4973573;28;20715;-57
2023/06/12 00:48:19;;;;;;;7.65;6.95;;;;;;;-141.84;55.04;21021.25;4973556;28;20660;-57
2023/06/12 00:50:48;;;;;;;11.13;7.90;;;;;;;-141.84;55.11;21000.91;4965722;28;20568;-58
2023/06/12 00:53:16;;;;;;;7.60;7.00;;;;;;;-141.84;55.01;21023.28;4973894;28;20224;-57
2023/06/12 00:55:46;;;;;;;8.13;7.32;;;;;;;-141.84;54.82;21000.91;4973622;28;20219;-57
2023/06/12 00:58:15;;;;;;;8.10;7.38;;;;;;;-141.84;54.83;21009.03;4973859;28;20291;-57
2023/06/12 01:00:44;;;;;;;8.65;7.80;;;;;;;-141.84;54.61;21029.38;4973082;28;20664;-58
2023/06/12 01:03:14;;;;;;;7.82;7.05;;;;;;;-141.84;55.28;21015.16;4986158;28;20254;-58
2023/06/12 01:05:45;;;;;;;8.48;7.63;;;;;;;-141.84;55.08;21021.25;4985522;28;20214;-58
2023/06/12 01:08:18;;;;;;;8.43;7.68;;;;;;;-141.84;54.89;21004.97;4973939;28;20311;-57
2023/06/12 01:10:53;;;;;;;8.20;7.40;;;;;;;-141.84;55.06;21031.41;4973654;28;20203;-56
2023/06/12 01:13:23;;;;;;;12.45;8.75;;;;;;;-141.84;54.79;21053.78;4973445;28;20707;-58
2023/06/12 01:15:51;;;;;;;8.68;7.88;;;;;;;-141.84;55.02;20988.72;4973670;28;20650;-58
2023/06/12 01:18:21;;;;;;;8.90;8.00;;;;;;;-141.84;54.95;21015.16;4973375;28;20311;-58
2023/06/12 01:20:51;;;;;;;8.43;7.63;;;;;;;-141.84;55.26;20992.78;4978300;28;20308;-57
2023/06/12 01:23:37;;;;;;;8.88;7.97;;;;;;;-141.84;55.63;20939.94;4992958;28;20203;-56
2023/06/12 01:26:25;;;;;;;8.30;7.60;;;;;;;-141.84;54.71;21021.25;4992416;28;20191;-57
2023/06/12 01:29:20;;;;;;;8.63;7.80;;;;;;;-141.84;55.07;20988.72;4992842;28;20191;-57
2023/06/12 01:31:59;;;;;;;9.25;7.88;;;;;;;-141.84;55.61;20968.38;4992726;28;20213;-58
2023/06/12 01:34:31;;;;;;;8.05;7.32;;;;;;;-141.84;56.18;20907.41;4986050;28;20246;-56
2023/06/12 01:37:06;;;;;;;8.35;7.43;;;;;;;-141.84;56.65;20883.00;4973180;28;20204;-58
2023/06/12 01:39:41;;;;;;;8.43;7.63;;;;;;;-141.84;55.54;20960.25;4973262;28;20219;-58
2023/06/12 01:42:10;;;;;;;8.13;7.38;;;;;;;-141.84;55.94;20907.41;4972315;28;20184;-57
2023/06/12 01:44:39;;;;;;;8.88;7.70;;;;;;;-141.84;56.07;20905.38;4972761;28;20770;-57
2023/06/12 01:47:09;;;;;;;8.27;7.57;;;;;;;-141.84;56.20;20911.47;4960992;28;20300;-56
2023/06/12 01:49:38;;;;;;;8.20;7.50;;;;;;;-141.84;56.16;20878.94;4953873;28;20320;-56
2023/06/12 01:52:07;;;;;;;8.93;7.40;;;;;;;-141.84;56.44;20897.25;4966357;28;20228;-57
2023/06/12 01:54:36;;;;;;;8.25;7.47;;;;;;;-141.84;56.04;20887.06;4972677;28;20738;-57
2023/06/12 01:57:05;;;;;;;8.23;6.88;;;;;;;-141.84;56.46;20850.47;4972676;28;20283;-58
2023/06/12 01:59:35;;;;;;;7.50;6.80;;;;;;;-141.84;56.22;20870.81;4972704;28;20687;-59
2023/06/12 02:02:03;;;;;;;7.82;7.20;;;;;;;-141.84;56.00;20874.88;4975709;28;20670;-57
2023/06/12 02:04:33;;;;;;;7.70;7.00;;;;;;;-141.84;56.26;20885.03;4992083;28;20298;-57
2023/06/12 02:07:03;;;;;;;8.25;7.28;;;;;;;-141.84;56.14;20891.13;4972751;28;20196;-57
2023/06/12 02:09:31;;;;;;;9.82;7.93;;;;;;;-141.84;55.90;20903.34;4972485;28;20291;-56
2023/06/12 02:12:00;;;;;;;7.88;7.18;;;;;;;-141.84;55.93;20870.81;4972414;28;20634;-58
2023/06/12 02:14:29;;;;;;;7.95;7.20;;;;;;;-141.84;56.26;20870.81;4972416;28;20204;-56
2023/06/12 02:16:58;;;;;;;12.00;7.78;;;;;;;-141.84;55.71;20901.31;4971915;28;20239;-60
2023/06/12 02:19:26;;;;;;;9.32;7.80;;;;;;;-141.84;55.80;20872.84;4972332;28;20234;-58
2023/06/12 02:21:57;;;;;;;8.75;7.95;;;;;;;-141.84;55.90;20834.22;4985831;28;20246;-57
2023/06/12 02:24:27;;;;;;;8.75;7.53;;;;;;;-141.84;56.05;20842.34;4991520;28;20686;-56
2023/06/12 02:26:56;;;;;;;10.20;7.60;;;;;;;-141.84;56.25;20836.25;4991633;28;20196;-58
2023/06/12 02:29:24;;;;;;;8.00;7.20;;;;;;;-141.84;55.42;20854.53;4991980;28;20294;-58
2023/06/12 02:31:53;;;;;;;8.80;8.00;;;;;;;-141.84;56.18;20783.41;4977430;28;20208;-55
2023/06/12 02:34:22;;;;;;;8.00;7.20;;;;;;;-141.84;55.83;20807.78;4991697;28;20231;-59
2023/06/12 02:36:50;;;;;;;7.78;7.07;;;;;;;-141.84;55.20;20840.31;4991187;28;20778;-59
2023/06/12 02:39:20;;;;;;;9.88;7.20;;;;;;;-141.84;55.24;20830.16;4991656;28;20208;-57
2023/06/12 02:41:50;;;;;;;8.52;7.63;;;;;;;-141.84;55.30;20844.38;4991585;28;20577;-57
2023/06/12 02:44:18;;;;;;;8.63;7.10;;;;;;;-141.84;54.58;20848.44;4953826;28;20323;-58
2023/06/12 02:46:55;;;;;;;7.97;7.28;;;;;;;-141.84;55.18;20817.94;4952631;29;20196;-57
2023/06/12 02:49:26;;;;;;;9.75;6.97;;;;;;;-141.84;54.87;20815.91;4952460;29;20216;-57
2023/06/12 02:51:54;;;;;;;9.50;7.25;;;;;;;-141.84;55.09;20826.09;4963697;28;20196;-58
2023/06/12 02:54:26;;;;;;;10.15;7.40;;;;;;;-141.84;55.01;20834.22;4971410;28;20218;-56
2023/06/12 02:56:54;;;;;;;7.63;6.85;;;;;;;-141.84;55.42;20775.25;4971532;28;20775;-57
2023/06/12 02:59:24;;;;;;;7.53;6.80;;;;;;;-141.84;56.01;20761.03;4971633;28;20719;-58
2023/06/12 03:01:53;;;;;;;7.50;6.80;;;;;;;-141.84;55.89;20771.19;4973718;28;20672;-57
2023/06/12 03:04:23;;;;;;;7.80;7.10;;;;;;;-141.84;55.68;20781.38;4991247;28;20330;-55
2023/06/12 03:06:53;;;;;;;8.93;6.88;;;;;;;-141.84;55.92;20767.13;4973365;28;20239;-55
2023/06/12 03:09:24;;;;;;;8.65;7.22;;;;;;;-141.84;55.92;20744.78;4971647;28;20228;-71
2023/06/12 03:11:54;;;;;;;8.98;6.57;;;;;;;-141.84;55.77;20769.16;4972119;28;20188;-70
2023/06/12 03:14:24;;;;;;;7.85;6.97;;;;;;;-141.84;55.31;20781.38;4971583;28;20208;-69
2023/06/12 03:16:52;;;;;;;7.30;6.60;;;;;;;-141.84;55.75;20756.97;4971167;28;20601;-71
2023/06/12 03:19:21;;;;;;;7.68;6.90;;;;;;;-141.84;55.42;20746.81;4971542;28;20239;-70
2023/06/12 03:21:49;;;;;;;7.55;6.78;;;;;;;-141.84;55.00;20809.81;4984751;28;20231;-70
2023/06/12 03:24:20;;;;;;;7.55;6.85;;;;;;;-141.84;55.14;20797.63;4990964;28;20290;-70
2023/06/12 03:26:50;;;;;;;7.93;6.47;;;;;;;-141.84;55.64;20763.06;4985772;28;20227;-70
2023/06/12 03:29:19;;;;;;;8.05;7.03;;;;;;;-141.84;55.66;20771.19;4971714;28;20295;-70
2023/06/12 03:31:48;;;;;;;7.95;7.05;;;;;;;-141.84;55.40;20765.09;4973110;28;20266;-70
2023/06/12 03:34:17;;;;;;;7.60;6.90;;;;;;;-141.84;55.32;20769.16;4990979;28;20216;-71
2023/06/12 03:36:46;;;;;;;7.78;6.90;;;;;;;-141.84;55.59;20742.75;4990872;28;20584;-69
2023/06/12 03:39:15;;;;;;;9.38;7.32;;;;;;;-141.84;54.86;20775.25;4974466;28;20216;-70
2023/06/12 03:41:55;;;;;;;7.72;6.95;;;;;;;-141.84;55.01;20801.69;4952194;29;20665;-69
2023/06/12 03:44:25;;;;;;;7.70;7.00;;;;;;;-141.84;55.14;20783.41;4963168;28;20228;-71
2023/06/12 03:46:53;;;;;;;10.27;6.70;;;;;;;-141.84;54.95;20781.38;4971258;28;20215;-71
2023/06/12 03:49:23;;;;;;;8.20;7.40;;;;;;;-141.84;54.00;20846.41;4971476;28;20208;-70
2023/06/12 03:51:51;;;;;;;7.22;6.53;;;;;;;-141.84;54.62;20803.72;4971496;28;20215;-70
2023/06/12 03:54:20;;;;;;;9.75;6.93;;;;;;;-141.84;53.96;20840.31;4971732;28;20206;-70
2023/06/12 03:56:49;;;;;;;7.20;6.60;;;;;;;-141.84;54.17;20817.94;4971368;28;20314;-71
2023/06/12 03:59:19;;;;;;;10.27;6.85;;;;;;;-141.84;53.97;20836.25;4971468;28;20204;-74
2023/06/12 04:01:48;;;;;;;10.73;6.97;;;;;;;-141.84;54.17;20834.22;4972654;28;20874;-70
2023/06/12 04:04:17;;;;;;;7.75;7.05;;;;;;;-141.84;53.56;20860.66;4990889;28;20239;-70
2023/06/12 04:06:46;;;;;;;7.82;6.93;;;;;;;-141.84;53.41;20838.28;4976961;28;20232;-70
2023/06/12 04:09:15;;;;;;;8.02;7.22;;;;;;;-141.84;52.88;20872.84;4974389;28;20200;-70
2023/06/12 04:11:46;;;;;;;7.10;6.40;;;;;;;-141.84;53.11;20809.81;4974792;28;20555;-71
2023/06/12 04:14:15;;;;;;;7.47;6.80;;;;;;;-141.84;53.08;20860.66;4974742;28;20235;-70
2023/06/12 04:16:44;;;;;;;7.40;6.40;;;;;;;-141.84;52.69;20842.34;4974587;28;20208;-69
2023/06/12 04:19:13;;;;;;;7.93;6.53;;;;;;;-141.84;52.58;20887.06;4974239;28;20200;-69
2023/06/12 04:21:42;;;;;;;9.70;7.07;;;;;;;-141.84;51.71;20950.09;4986153;28;20239;-69
2023/06/12 04:24:15;;;;;;;6.80;6.18;;;;;;;-141.84;51.54;20885.03;4979493;28;20208;-70
2023/06/12 04:26:46;;;;;;;7.05;6.43;;;;;;;-141.84;51.54;20905.38;4974681;28;20193;-71
2023/06/12 04:29:16;;;;;;;8.20;6.53;;;;;;;-141.84;50.70;20915.53;4974556;28;20240;-69
2023/06/12 04:31:46;;;;;;;7.43;6.72;;;;;;;-141.84;50.44;20952.13;4975395;28;20255;-71
2023/06/12 04:34:15;;;;;;;6.70;6.10;;;;;;;-141.84;50.53;20939.94;4993948;28;20210;-69
2023/06/12 04:36:45;;;;;;;8.75;5.95;;;;;;;-141.84;50.81;20960.25;4957247;28;20575;-71
2023/06/12 04:39:14;;;;;;;7.28;6.57;;;;;;;-141.84;50.29;20931.78;4954889;29;20258;-70
2023/06/12 04:41:43;;;;;;;7.03;6.05;;;;;;;-141.84;49.74;20994.81;4954491;29;20712;-69
2023/06/12 04:44:12;;;;;;;7.35;6.10;;;;;;;-141.84;49.17;21025.31;4954571;29;20707;-69
2023/06/12 04:46:41;;;;;;;6.10;5.50;;;;;;;-141.84;48.30;21068.00;4954399;29;20208;-71
2023/06/12 04:49:19;;;;;;;7.28;5.93;;;;;;;-141.84;46.95;21269.28;4954844;29;20701;-70
2023/06/12 04:51:50;;;;;;;5.60;5.10;;;;;;;-141.84;43.37;21641.34;4965155;28;20276;-70
2023/06/12 04:54:19;;;;;;;7.07;5.95;;;;;;;-141.84;38.69;22119.22;4973851;28;20189;-71
2023/06/12 04:56:50;;;;;;;5.72;5.05;;;;;;;-141.84;36.62;22525.94;4973855;28;20234;-70
2023/06/12 04:59:18;;;;;;;5.38;4.75;;;;;;;-141.84;33.92;22861.53;4973698;28;20776;-70
2023/06/12 05:01:47;;;;;;;5.55;5.05;;;;;;;-141.84;32.75;23225.63;4974936;28;20200;-71
2023/06/12 05:04:16;;;;;;;5.50;5.00;;;;;;;-141.84;31.47;23368.03;4992894;28;20204;-69
2023/06/12 05:06:45;;;;;;;5.25;4.75;;;;;;;-141.84;31.21;23534.84;4976484;28;20615;-69
2023/06/12 05:09:14;;;;;;;5.15;4.75;;;;;;;-141.84;30.14;23764.72;4973014;28;20663;-70
2023/06/12 05:11:42;;;;;;;5.57;4.78;;;;;;;-141.84;29.63;23894.91;4973404;28;20306;-71
2023/06/12 05:14:11;;;;;;;5.88;4.78;;;;;;;-141.84;29.33;24104.47;4973023;28;20303;-70
2023/06/12 05:16:39;;;;;;;4.93;4.47;;;;;;;-141.84;28.94;24173.66;4973337;28;20236;-71
2023/06/12 05:19:10;;;;;;;5.18;4.65;;;;;;;-141.84;28.35;24425.97;4973284;28;20235;-70
2023/06/12 05:21:41;;;;;;;6.05;4.47;;;;;;;-141.84;28.09;24484.97;4984416;28;20660;-71
2023/06/12 05:24:09;;;;;;;7.20;4.40;;;;;;;-141.84;27.70;24527.69;4993116;28;20202;-69
2023/06/12 05:26:38;;;;;;;4.72;4.15;;;;;;;-141.84;28.40;24513.44;4999438;28;20286;-70
2023/06/12 05:29:07;;;;;;;6.82;4.70;;;;;;;-141.84;28.03;24529.72;5000854;28;20675;-70
2023/06/12 05:31:35;;;;;;;5.18;4.68;;;;;;;-141.84;28.20;24360.84;4982701;28;20668;-69
2023/06/12 05:34:04;;;;;;;5.32;4.30;;;;;;;-141.84;28.56;24151.28;4992615;28;20204;-70
2023/06/12 05:36:32;;;;;;;8.68;4.78;;;;;;;-141.84;29.07;23905.09;4993040;28;20290;-70
2023/06/12 05:39:02;;;;;;;4.43;4.00;;;;;;;-141.84;30.04;23571.44;4993313;28;20234;-70
2023/06/12 05:41:37;;;;;;;5.38;4.45;;;;;;;-141.84;31.26;23075.09;4992570;28;20195;-70
2023/06/12 05:44:06;;;;;;;5.10;4.32;;;;;;;-141.84;32.53;22743.56;4977982;28;20563;-71
2023/06/12 05:46:35;;;;;;;4.50;4.10;;;;;;;-141.84;34.00;22525.94;4972799;28;20295;-70
2023/06/12 05:49:04;;;;;;;5.78;4.55;;;;;;;-141.84;35.14;22393.75;4972843;28;20212;-70
2023/06/12 05:51:32;;;;;;;4.85;4.38;;;;;;;-141.84;35.97;22294.09;4974255;28;20223;-70
2023/06/12 05:54:02;;;;;;;5.68;4.47;;;;;;;-141.84;35.86;22212.75;4975536;28;20242;-71
2023/06/12 05:56:31;;;;;;;6.40;4.20;;;;;;;-141.84;36.32;22143.63;4972632;28;20763;-71
2023/06/12 05:59:00;;;;;;;5.38;4.50;;;;;;;-141.84;35.87;22098.88;4972502;28;20258;-70
2023/06/12 06:01:31;;;;;;;4.82;4.43;;;;;;;-141.84;36.85;22062.28;4972659;28;20200;-71
2023/06/12 06:04:00;;;;;;;5.35;4.03;;;;;;;-141.84;36.39;22048.03;4992002;28;20203;-72
2023/06/12 06:06:30;;;;;;;6.72;4.35;;;;;;;-141.84;36.08;22046.00;4977552;28;20284;-70
2023/06/12 06:09:00;;;;;;;4.38;3.92;;;;;;;-141.84;36.62;22031.78;4972567;28;20287;-69
2023/06/12 06:11:30;;;;;;;5.53;4.13;;;;;;;-141.84;37.45;22019.56;4972425;28;20542;-70
2023/06/12 06:13:59;;;;;;;5.18;4.68;;;;;;;-141.84;36.54;22054.13;4972727;28;20294;-70
2023/06/12 06:16:27;;;;;;;5.03;4.10;;;;;;;-141.84;37.19;22029.75;4972233;28;20212;-70
2023/06/12 06:19:16;;;;;;;4.38;3.97;;;;;;;-141.84;37.05;22088.72;4972482;28;20238;-71
2023/06/12 06:21:44;;;;;;;5.85;4.05;;;;;;;-141.84;37.04;22133.44;4973102;28;20207;-71
2023/06/12 06:24:13;;;;;;;6.05;4.78;;;;;;;-141.84;36.56;22159.88;4973360;28;20291;-69
2023/06/12 06:26:43;;;;;;;4.63;4.22;;;;;;;-141.84;36.92;22113.13;4972732;28;20330;-70
2023/06/12 06:29:11;;;;;;;8.75;4.38;;;;;;;-141.84;37.01;22127.34;4953700;28;20731;-72
2023/06/12 06:31:42;;;;;;;4.82;4.40;;;;;;;-141.84;37.59;22111.09;4954265;28;20208;-71
2023/06/12 06:34:12;;;;;;;7.78;4.45;;;;;;;-141.84;37.28;22107.00;4991668;28;20648;-71
2023/06/12 06:36:41;;;;;;;5.13;4.43;;;;;;;-141.84;37.86;22139.56;4991866;28;20299;-70
2023/06/12 06:39:09;;;;;;;5.97;4.38;;;;;;;-141.84;37.62;22143.63;4991390;28;20306;-71
2023/06/12 06:41:38;;;;;;;6.53;4.60;;;;;;;-141.84;37.74;22109.03;4991437;28;20291;-70
2023/06/12 06:44:08;;;;;;;8.43;4.45;;;;;;;-141.84;37.81;22072.44;4974480;28;20236;-73
2023/06/12 06:46:37;;;;;;;5.30;4.80;;;;;;;-141.84;38.31;22076.50;4956590;28;20735;-70
2023/06/12 06:49:06;;;;;;;4.93;4.47;;;;;;;-141.84;38.20;22109.03;4971328;28;20201;-70
2023/06/12 06:51:35;;;;;;;9.30;4.78;;;;;;;-141.84;37.98;22070.41;4979904;28;20206;-70
2023/06/12 06:54:03;;;;;;;5.25;4.55;;;;;;;-141.84;38.24;22062.28;4991154;28;20253;-69
2023/06/12 06:56:32;;;;;;;6.05;4.68;;;;;;;-141.84;38.14;22098.88;4974167;28;20288;-69
2023/06/12 06:59:00;;;;;;;6.68;4.55;;;;;;;-141.84;38.41;22115.16;4971634;28;20223;-69
2023/06/12 07:01:33;;;;;;;7.80;4.57;;;;;;;-141.84;37.83;22135.47;4970936;28;20259;-68
2023/06/12 07:04:02;;;;;;;6.13;4.53;;;;;;;-141.84;38.17;22184.28;4971413;28;20188;-68
2023/06/12 07:06:31;;;;;;;9.10;4.70;;;;;;;-141.84;37.75;22188.34;4971437;28;20204;-68
2023/06/12 07:09:00;;;;;;;4.53;4.13;;;;;;;-141.84;37.40;22157.84;4971408;28;20330;-69
2023/06/12 07:11:29;;;;;;;7.85;4.72;;;;;;;-141.84;37.10;22151.75;4970935;28;20232;-69
2023/06/12 07:13:58;;;;;;;9.02;4.40;;;;;;;-141.84;37.39;22096.84;4971625;28;20204;-69
2023/06/12 07:16:27;;;;;;;5.53;4.40;;;;;;;-141.84;37.53;22127.34;4970895;28;20232;-70
2023/06/12 07:18:57;;;;;;;5.60;4.20;;;;;;;-141.84;37.59;22141.59;4951996;29;20303;-70
2023/06/12 07:21:26;;;;;;;6.20;4.78;;;;;;;-141.84;37.87;22168.03;4963001;28;20259;-69
2023/06/12 07:23:54;;;;;;;4.50;4.07;;;;;;;-141.84;38.37;22157.84;4966071;28;20209;-70
2023/06/12 07:26:23;;;;;;;5.93;4.15;;;;;;;-141.84;37.63;22135.47;4952056;29;20240;-70
2023/06/12 07:28:57;;;;;;;5.78;4.75;;;;;;;-141.84;38.17;22153.78;4952278;29;20189;-69
2023/06/12 07:31:28;;;;;;;5.70;4.82;;;;;;;-141.84;38.43;22143.63;4951809;29;20221;-70
2023/06/12 07:33:58;;;;;;;6.22;4.80;;;;;;;-141.84;38.16;22123.28;4989800;28;20212;-74
2023/06/12 07:36:28;;;;;;;5.03;4.38;;;;;;;-141.84;38.06;22161.91;4983716;28;20211;-75
2023/06/12 07:38:56;;;;;;;5.15;4.65;;;;;;;-141.84;37.68;22233.09;4971135;28;20398;-72
2023/06/12 07:41:26;;;;;;;9.05;4.43;;;;;;;-141.84;37.21;22202.59;4973579;28;20407;-69
2023/06/12 07:43:54;;;;;;;5.15;4.53;;;;;;;-141.84;37.91;22129.38;4974586;28;20330;-69
2023/06/12 07:46:23;;;;;;;7.15;4.90;;;;;;;-141.84;37.83;22159.88;4974329;28;20353;-69
2023/06/12 07:48:51;;;;;;;5.30;4.80;;;;;;;-141.84;37.29;22133.44;4974743;28;20207;-76
2023/06/12 07:51:21;;;;;;;8.25;4.63;;;;;;;-141.84;37.44;22161.91;4974624;28;20208;-68
2023/06/12 07:53:50;;;;;;;6.22;4.65;;;;;;;-141.84;37.14;22176.16;4975562;28;20404;-79
2023/06/12 07:56:19;;;;;;;5.68;4.32;;;;;;;-141.84;36.75;22243.25;4974596;28;20279;-75
2023/06/12 07:58:47;;;;;;;5.57;4.22;;;;;;;-141.84;36.06;22243.25;4975029;28;20228;-77
2023/06/12 08:01:16;;;;;;;6.28;4.50;;;;;;;-141.84;36.84;22176.16;4975112;28;20208;-73
2023/06/12 08:03:44;;;;;;;4.80;4.15;;;;;;;-141.84;35.92;22204.63;4991585;28;20203;-72
2023/06/12 08:06:15;;;;;;;8.95;4.40;;;;;;;-141.84;35.88;22239.19;4980983;28;20214;-75
2023/06/12 08:08:46;;;;;;;4.85;4.32;;;;;;;-141.84;36.15;22218.84;4974237;28;20295;-67
2023/06/12 08:11:15;;;;;;;5.03;4.53;;;;;;;-141.84;35.57;22290.03;4973965;28;20203;-75
2023/06/12 08:13:44;;;;;;;6.03;4.50;;;;;;;-141.84;35.46;22334.78;4974747;28;20286;-76
2023/06/12 08:16:12;;;;;;;7.55;4.50;;;;;;;-141.84;35.13;22340.88;4973916;28;20215;-75
2023/06/12 08:18:42;;;;;;;5.55;4.45;;;;;;;-141.84;35.25;22300.22;4974056;28;20262;-73
2023/06/12 08:21:10;;;;;;;5.75;4.32;;;;;;;-141.84;34.80;22326.66;4971954;28;20231;-72
2023/06/12 08:23:39;;;;;;;7.90;4.70;;;;;;;-141.84;34.70;22273.78;4972669;28;20243;-72
2023/06/12 08:26:09;;;;;;;4.63;4.22;;;;;;;-141.84;34.10;22344.94;4971774;28;20208;-73
2023/06/12 08:28:38;;;;;;;5.15;4.35;;;;;;;-141.84;34.36;22338.84;4971010;28;20557;-73
2023/06/12 08:31:08;;;;;;;7.88;4.22;;;;;;;-141.84;34.28;22346.97;4972606;28;20668;-69
2023/06/12 08:33:37;;;;;;;5.10;4.32;;;;;;;-141.84;34.03;22371.38;4978474;28;20201;-73
2023/06/12 08:36:06;;;;;;;8.02;4.88;;;;;;;-141.84;33.67;22385.63;4972948;28;20263;-71
2023/06/12 08:38:34;;;;;;;9.52;4.80;;;;;;;-141.84;33.69;22397.81;4972717;28;20204;-76
2023/06/12 08:41:04;;;;;;;5.07;4.28;;;;;;;-141.84;31.96;22420.19;4972529;28;20251;-73
2023/06/12 08:43:35;;;;;;;8.75;4.10;;;;;;;-141.84;31.88;22391.72;4971054;28;20327;-72
2023/06/12 08:46:06;;;;;;;5.40;3.58;;;;;;;-141.84;31.86;22359.19;4971354;28;20220;-73
2023/06/12 08:48:36;;;;;;;10.43;4.82;;;;;;;-141.84;31.69;22399.84;4971743;28;20196;-70
2023/06/12 08:51:06;;;;;;;7.00;4.50;;;;;;;-141.84;31.61;22383.59;4969957;28;20571;-73
2023/06/12 08:53:35;;;;;;;10.50;4.63;;;;;;;-141.84;31.51;22399.84;4972544;28;20268;-73
2023/06/12 08:56:04;;;;;;;6.43;3.92;;;;;;;-141.84;31.86;22428.31;4971343;28;20688;-72
2023/06/12 08:58:34;;;;;;;6.40;3.88;;;;;;;-141.84;31.81;22424.25;4969832;28;20203;-72
2023/06/12 09:01:04;;;;;;;11.52;4.50;;;;;;;-141.84;31.92;22444.59;4971623;28;20338;-74
2023/06/12 09:03:35;;;;;;;8.70;3.85;;;;;;;-141.84;31.86;22444.59;4972415;28;20718;-70
2023/06/12 09:06:09;;;;;;;8.38;4.43;;;;;;;-141.84;31.81;22458.84;4971973;28;20258;-69
2023/06/12 09:08:39;;;;;;;6.35;3.95;;;;;;;-141.84;31.34;22460.88;4971554;28;20572;-69
2023/06/12 09:11:07;;;;;;;3.92;3.63;;;;;;;-141.84;31.69;22424.25;4972113;28;20621;-74
2023/06/12 09:13:43;;;;;;;5.55;3.58;;;;;;;-141.84;32.04;22410.03;4971609;28;20228;-70
2023/06/12 09:16:13;;;;;;;4.10;3.70;;;;;;;-141.84;32.33;22446.63;4968127;28;20193;-76
2023/06/12 09:18:50;;;;;;;5.32;3.47;;;;;;;-141.84;31.30;22489.34;4970053;28;20291;-72
2023/06/12 09:21:21;;;;;;;4.10;3.70;;;;;;;-141.84;30.97;22493.41;4971630;28;20211;-74
2023/06/12 09:23:52;;;;;;;4.32;3.30;;;;;;;-141.84;31.03;22422.22;4971630;28;20283;-70
2023/06/12 09:26:22;;;;;;;4.50;3.72;;;;;;;-141.84;30.83;22434.44;4971875;28;20528;-71
2023/06/12 09:28:54;;;;;;;5.00;3.70;;;;;;;-141.84;31.11;22399.84;4971508;28;20196;-72
2023/06/12 09:31:22;;;;;;;5.05;3.70;;;;;;;-141.84;31.37;22432.41;4971005;28;20756;-71
2023/06/12 09:33:53;;;;;;;4.63;4.05;;;;;;;-141.84;32.22;22414.09;4972259;28;20201;-75
2023/06/12 09:36:27;;;;;;;7.70;3.90;;;;;;;-141.84;31.25;22458.84;4977130;28;20207;-74
2023/06/12 09:38:56;;;;;;;9.65;4.32;;;;;;;-141.84;31.69;22401.88;4969210;28;20191;-74
2023/06/12 09:41:25;;;;;;;6.10;4.07;;;;;;;-141.84;31.86;22414.09;4967864;28;20259;-69
2023/06/12 09:44:02;;;;;;;5.90;3.70;;;;;;;-141.84;31.12;22440.53;4971141;28;20232;-70
2023/06/12 09:46:32;;;;;;;5.90;3.97;;;;;;;-141.84;31.26;22473.06;4971159;28;20203;-69
2023/06/12 09:49:03;;;;;;;5.95;3.75;;;;;;;-141.84;29.61;22495.44;4970840;28;20196;-72
2023/06/12 09:51:33;;;;;;;7.32;3.95;;;;;;;-141.84;30.75;22450.69;4970020;28;20755;-72
2023/06/12 09:54:05;;;;;;;4.25;3.95;;;;;;;-141.84;31.06;22434.44;4970507;28;20211;-73
2023/06/12 09:56:34;;;;;;;5.25;4.35;;;;;;;-141.84;31.41;22452.72;4971214;28;20196;-73
2023/06/12 09:59:08;;;;;;;4.30;3.90;;;;;;;-141.84;31.29;22448.66;4970953;28;20607;-75
2023/06/12 10:01:39;;;;;;;4.72;4.30;;;;;;;-141.84;31.37;22491.38;4969531;28;20223;-74
2023/06/12 10:04:12;;;;;;;7.22;4.53;;;;;;;-141.84;31.13;22481.22;4971943;28;20223;-77
2023/06/12 10:06:43;;;;;;;7.43;3.90;;;;;;;-141.84;30.96;22505.59;4971179;28;20615;-73
2023/06/12 10:09:13;;;;;;;5.80;4.38;;;;;;;-141.84;31.11;22507.66;4970948;28;20263;-75
2023/06/12 10:11:43;;;;;;;5.28;4.78;;;;;;;-141.84;31.43;22487.31;4971258;28;20287;-69
2023/06/12 10:14:13;;;;;;;6.55;4.93;;;;;;;-141.84;31.99;22527.97;4969732;28;20236;-74
2023/06/12 10:16:44;;;;;;;5.07;4.57;;;;;;;-141.84;31.95;22511.72;4970777;28;20660;-72
2023/06/12 10:19:16;;;;;;;5.55;5.00;;;;;;;-141.84;32.27;22536.13;4970379;28;20210;-73
2023/06/12 10:21:45;;;;;;;5.80;5.20;;;;;;;-141.84;32.11;22536.13;4969029;28;21194;-72
2023/06/12 10:24:14;;;;;;;6.15;4.70;;;;;;;-141.84;31.89;22507.66;4970644;28;20212;-71
2023/06/12 10:26:43;;;;;;;5.55;5.05;;;;;;;-141.84;32.27;22493.41;4968692;28;20204;-73
2023/06/12 10:29:30;;;;;;;5.70;4.70;;;;;;;-141.84;32.51;22544.25;4969862;28;20211;-72
2023/06/12 10:32:06;;;;;;;8.23;5.28;;;;;;;-141.84;31.96;22554.41;4970421;28;20191;-59
2023/06/12 10:34:36;;;;;;;6.20;4.65;;;;;;;-141.84;32.38;22601.19;4969691;28;20286;-59
2023/06/12 10:37:23;;;;;;;6.10;5.07;;;;;;;-141.84;32.40;22678.47;4970578;28;20202;-59
2023/06/12 10:40:09;;;;;;;5.80;4.68;;;;;;;-141.84;32.44;22656.13;4969454;28;20275;-60
2023/06/12 10:42:47;;;;;;;6.25;4.63;;;;;;;-141.84;32.53;22694.75;4969864;28;20664;-60
2023/06/12 10:45:19;;;;;;;5.25;4.75;;;;;;;-141.84;32.26;22692.72;4969675;28;20258;-61
2023/06/12 10:48:14;;;;;;;7.13;5.20;;;;;;;-141.84;31.68;22684.59;4970590;28;20287;-59
2023/06/12 10:50:44;;;;;;;6.15;5.07;;;;;;;-141.84;31.82;22639.84;4967339;28;20212;-59
2023/06/12 10:53:15;;;;;;;8.73;5.50;;;;;;;-141.84;31.47;22589.00;4970639;28;20287;-59
2023/06/12 10:55:45;;;;;;;6.03;5.15;;;;;;;-141.84;32.01;22552.38;4965756;28;20574;-58
2023/06/12 10:58:14;;;;;;;6.03;5.07;;;;;;;-141.84;31.88;22623.56;4970472;28;20298;-72
2023/06/12 11:00:49;;;;;;;6.68;5.00;;;;;;;-141.84;31.54;22658.16;4970153;28;20710;-71
2023/06/12 11:03:22;;;;;;;6.13;5.55;;;;;;;-141.84;31.98;22680.53;4974752;28;20207;-74
2023/06/12 11:05:56;;;;;;;6.03;5.45;;;;;;;-141.84;31.16;22692.72;4972693;28;20199;-74
2023/06/12 11:08:28;;;;;;;6.22;5.72;;;;;;;-141.84;30.98;22690.69;4969799;28;20203;-71
2023/06/12 11:10:57;;;;;;;7.32;5.60;;;;;;;-141.84;31.21;22656.13;4968948;28;20192;-73
2023/06/12 11:13:27;;;;;;;6.47;5.75;;;;;;;-141.84;30.99;22660.19;4969267;28;20569;-71
2023/06/12 11:15:57;;;;;;;5.90;5.30;;;;;;;-141.84;30.79;22656.13;4972431;28;20195;-71
2023/06/12 11:18:25;;;;;;;5.90;5.40;;;;;;;-141.84;31.25;22631.72;4973157;28;20278;-72
2023/06/12 11:20:55;;;;;;;6.18;5.55;;;;;;;-141.84;31.18;22643.91;4972271;28;20719;-72
2023/06/12 11:23:24;;;;;;;5.43;4.93;;;;;;;-141.84;31.62;22601.19;4974071;28;20366;-75
2023/06/12 11:25:55;;;;;;;5.70;5.20;;;;;;;-141.84;31.74;22586.97;4972503;28;20668;-75
2023/06/12 11:28:25;;;;;;;6.70;5.15;;;;;;;-141.84;31.80;22625.59;4974106;28;20184;-73
2023/06/12 11:30:56;;;;;;;5.78;5.28;;;;;;;-141.84;31.99;22576.78;4973099;28;20184;-74